sensor_id;sensor_type;location;lat;lon;timestamp;pressure;altitude;pressure_sealevel;temperature;humidity
25510;BME280;13413;52.336;21.200;2023-03-15T00:01:25;98675.73;;;10.62;72.54
25510;BME280;13413;52.336;21.200;2023-03-15T00:07:09;98688.64;;;10.66;72.65
25510;BME280;13413;52.336;21.200;2023-03-15T00:10:01;98693.48;;;10.68;72.50
25510;BME280;13413;52.336;21.200;2023-03-15T00:12:54;98688.02;;;10.70;72.50
25510;BME280;13413;52.336;21.200;2023-03-15T00:15:47;98689.92;;;10.72;72.59
25510;BME280;13413;52.336;21.200;2023-03-15T00:18:40;98692.64;;;10.75;72.50
25510;BME280;13413;52.336;21.200;2023-03-15T00:27:05;98703.98;;;10.85;72.17
25510;BME280;13413;52.336;21.200;2023-03-15T00:29:57;98707.70;;;10.84;72.26
25510;BME280;13413;52.336;21.200;2023-03-15T00:32:50;98713.48;;;10.84;72.30
25510;BME280;13413;52.336;21.200;2023-03-15T00:35:44;98711.92;;;10.86;72.12
25510;BME280;13413;52.336;21.200;2023-03-15T00:38:37;98713.96;;;10.89;72.07
25510;BME280;13413;52.336;21.200;2023-03-15T00:41:29;98719.47;;;10.88;72.05
25510;BME280;13413;52.336;21.200;2023-03-15T00:44:22;98730.11;;;10.88;72.18
25510;BME280;13413;52.336;21.200;2023-03-15T00:47:14;98729.80;;;10.88;72.04
25510;BME280;13413;52.336;21.200;2023-03-15T00:50:06;98735.15;;;10.94;71.85
25510;BME280;13413;52.336;21.200;2023-03-15T00:52:59;98741.73;;;10.98;71.57
25510;BME280;13413;52.336;21.200;2023-03-15T00:55:51;98767.58;;;11.06;71.25
25510;BME280;13413;52.336;21.200;2023-03-15T00:58:44;98803.08;;;10.95;69.29
25510;BME280;13413;52.336;21.200;2023-03-15T01:01:36;98821.14;;;10.48;68.23
25510;BME280;13413;52.336;21.200;2023-03-15T01:07:37;98855.20;;;9.49;68.63
25510;BME280;13413;52.336;21.200;2023-03-15T01:13:35;98893.12;;;9.09;69.30
25510;BME280;13413;52.336;21.200;2023-03-15T01:16:27;98914.61;;;8.93;69.18
25510;BME280;13413;52.336;21.200;2023-03-15T01:19:20;98923.56;;;8.64;68.98
25510;BME280;13413;52.336;21.200;2023-03-15T01:22:12;98950.58;;;8.41;69.27
25510;BME280;13413;52.336;21.200;2023-03-15T01:25:05;98964.00;;;8.25;68.81
25510;BME280;13413;52.336;21.200;2023-03-15T01:27:57;98974.82;;;8.01;68.86
25510;BME280;13413;52.336;21.200;2023-03-15T01:30:49;98992.35;;;7.95;69.15
25510;BME280;13413;52.336;21.200;2023-03-15T01:33:42;99007.45;;;7.73;69.11
25510;BME280;13413;52.336;21.200;2023-03-15T01:36:37;99012.96;;;7.45;69.17
25510;BME280;13413;52.336;21.200;2023-03-15T01:39:29;99024.84;;;7.24;69.30
25510;BME280;13413;52.336;21.200;2023-03-15T01:42:21;99045.33;;;7.06;69.11
25510;BME280;13413;52.336;21.200;2023-03-15T01:48:18;99069.11;;;6.64;69.56
25510;BME280;13413;52.336;21.200;2023-03-15T01:51:15;99070.56;;;6.55;69.91
25510;BME280;13413;52.336;21.200;2023-03-15T01:54:11;99091.84;;;6.47;70.14
25510;BME280;13413;52.336;21.200;2023-03-15T01:57:05;99094.63;;;6.30;70.41
25510;BME280;13413;52.336;21.200;2023-03-15T01:59:59;99107.29;;;6.25;70.42
25510;BME280;13413;52.336;21.200;2023-03-15T02:02:54;99113.15;;;6.17;70.35
25510;BME280;13413;52.336;21.200;2023-03-15T02:05:48;99112.30;;;6.14;70.37
25510;BME280;13413;52.336;21.200;2023-03-15T02:08:43;99114.30;;;6.10;70.30
25510;BME280;13413;52.336;21.200;2023-03-15T02:11:36;99137.81;;;6.04;70.21
25510;BME280;13413;52.336;21.200;2023-03-15T02:14:28;99153.95;;;5.96;69.70
25510;BME280;13413;52.336;21.200;2023-03-15T02:17:24;99185.77;;;5.89;69.61
25510;BME280;13413;52.336;21.200;2023-03-15T02:20:22;99213.48;;;5.85;69.70
25510;BME280;13413;52.336;21.200;2023-03-15T02:23:17;99229.08;;;5.79;69.43
25510;BME280;13413;52.336;21.200;2023-03-15T02:26:14;99238.70;;;5.74;69.14
25510;BME280;13413;52.336;21.200;2023-03-15T02:29:08;99249.42;;;5.68;69.06
25510;BME280;13413;52.336;21.200;2023-03-15T02:32:02;99253.63;;;5.69;69.16
25510;BME280;13413;52.336;21.200;2023-03-15T02:34:54;99261.61;;;5.72;69.01
25510;BME280;13413;52.336;21.200;2023-03-15T02:37:46;99274.80;;;5.71;68.81
25510;BME280;13413;52.336;21.200;2023-03-15T02:51:31;99323.26;;;5.65;68.13
25510;BME280;13413;52.336;21.200;2023-03-15T02:54:24;99335.09;;;5.67;68.19
25510;BME280;13413;52.336;21.200;2023-03-15T02:57:17;99340.13;;;5.74;68.13
25510;BME280;13413;52.336;21.200;2023-03-15T03:00:10;99348.87;;;5.74;67.75
25510;BME280;13413;52.336;21.200;2023-03-15T03:03:03;99357.05;;;5.76;68.07
25510;BME280;13413;52.336;21.200;2023-03-15T03:05:55;99361.94;;;5.80;67.86
25510;BME280;13413;52.336;21.200;2023-03-15T03:08:47;99366.64;;;5.83;68.05
25510;BME280;13413;52.336;21.200;2023-03-15T03:11:39;99366.07;;;5.85;67.81
25510;BME280;13413;52.336;21.200;2023-03-15T03:14:31;99376.17;;;5.82;67.20
25510;BME280;13413;52.336;21.200;2023-03-15T03:17:23;99378.40;;;5.76;67.24
25510;BME280;13413;52.336;21.200;2023-03-15T03:20:16;99385.70;;;5.76;67.38
25510;BME280;13413;52.336;21.200;2023-03-15T03:23:09;99397.63;;;5.79;67.48
25510;BME280;13413;52.336;21.200;2023-03-15T03:26:01;99398.08;;;5.78;67.33
25510;BME280;13413;52.336;21.200;2023-03-15T03:31:47;99413.76;;;5.76;67.25
25510;BME280;13413;52.336;21.200;2023-03-15T03:34:39;99421.42;;;5.73;67.38
25510;BME280;13413;52.336;21.200;2023-03-15T03:37:31;99428.48;;;5.70;67.32
25510;BME280;13413;52.336;21.200;2023-03-15T03:40:23;99427.06;;;5.70;67.44
25510;BME280;13413;52.336;21.200;2023-03-15T03:43:15;99427.61;;;5.69;67.50
25510;BME280;13413;52.336;21.200;2023-03-15T03:46:08;99441.05;;;5.64;67.47
25510;BME280;13413;52.336;21.200;2023-03-15T03:49:00;99456.06;;;5.66;67.46
25510;BME280;13413;52.336;21.200;2023-03-15T03:51:53;99464.30;;;5.67;67.49
25510;BME280;13413;52.336;21.200;2023-03-15T03:54:45;99464.94;;;5.70;67.54
25510;BME280;13413;52.336;21.200;2023-03-15T03:57:37;99465.70;;;5.69;67.51
25510;BME280;13413;52.336;21.200;2023-03-15T04:00:29;99469.21;;;5.74;67.65
25510;BME280;13413;52.336;21.200;2023-03-15T04:03:21;99482.27;;;5.73;67.46
25510;BME280;13413;52.336;21.200;2023-03-15T04:06:13;99494.85;;;5.77;67.66
25510;BME280;13413;52.336;21.200;2023-03-15T04:09:06;99510.28;;;5.77;67.52
25510;BME280;13413;52.336;21.200;2023-03-15T04:11:58;99521.37;;;5.73;67.50
25510;BME280;13413;52.336;21.200;2023-03-15T04:14:50;99515.58;;;5.72;67.53
25510;BME280;13413;52.336;21.200;2023-03-15T04:17:42;99507.45;;;5.69;67.40
25510;BME280;13413;52.336;21.200;2023-03-15T04:20:34;99512.61;;;5.71;67.56
25510;BME280;13413;52.336;21.200;2023-03-15T04:23:26;99521.86;;;5.73;67.56
25510;BME280;13413;52.336;21.200;2023-03-15T04:26:19;99529.52;;;5.72;67.49
25510;BME280;13413;52.336;21.200;2023-03-15T04:29:11;99537.52;;;5.72;67.26
25510;BME280;13413;52.336;21.200;2023-03-15T04:32:03;99544.46;;;5.76;67.52
25510;BME280;13413;52.336;21.200;2023-03-15T04:34:55;99543.09;;;5.80;67.17
25510;BME280;13413;52.336;21.200;2023-03-15T04:37:47;99537.67;;;5.78;67.20
25510;BME280;13413;52.336;21.200;2023-03-15T04:40:39;99535.45;;;5.81;67.28
25510;BME280;13413;52.336;21.200;2023-03-15T04:43:32;99539.06;;;5.81;67.11
25510;BME280;13413;52.336;21.200;2023-03-15T04:46:24;99542.81;;;5.83;66.88
25510;BME280;13413;52.336;21.200;2023-03-15T04:49:16;99546.17;;;5.81;67.03
25510;BME280;13413;52.336;21.200;2023-03-15T04:55:00;99559.48;;;5.73;66.19
25510;BME280;13413;52.336;21.200;2023-03-15T04:57:52;99549.22;;;5.69;66.21
25510;BME280;13413;52.336;21.200;2023-03-15T05:00:45;99553.96;;;5.67;66.02
25510;BME280;13413;52.336;21.200;2023-03-15T05:03:37;99556.98;;;5.67;65.96
25510;BME280;13413;52.336;21.200;2023-03-15T05:12:02;99564.58;;;5.71;65.75
25510;BME280;13413;52.336;21.200;2023-03-15T05:14:55;99578.79;;;5.66;65.63
25510;BME280;13413;52.336;21.200;2023-03-15T05:17:47;99579.38;;;5.67;65.62
25510;BME280;13413;52.336;21.200;2023-03-15T05:20:40;99583.77;;;5.67;65.49
25510;BME280;13413;52.336;21.200;2023-03-15T05:23:31;99594.86;;;5.70;65.74
25510;BME280;13413;52.336;21.200;2023-03-15T05:26:23;99602.20;;;5.73;65.70
25510;BME280;13413;52.336;21.200;2023-03-15T05:29:15;99611.80;;;5.74;65.73
25510;BME280;13413;52.336;21.200;2023-03-15T05:32:08;99622.85;;;5.72;65.37
25510;BME280;13413;52.336;21.200;2023-03-15T05:35:00;99631.41;;;5.76;65.92
25510;BME280;13413;52.336;21.200;2023-03-15T05:37:52;99635.95;;;5.79;65.63
25510;BME280;13413;52.336;21.200;2023-03-15T05:40:45;99634.73;;;5.77;65.40
25510;BME280;13413;52.336;21.200;2023-03-15T05:43:37;99636.84;;;5.79;65.36
25510;BME280;13413;52.336;21.200;2023-03-15T05:46:29;99639.56;;;5.80;65.11
25510;BME280;13413;52.336;21.200;2023-03-15T05:49:21;99637.98;;;5.78;64.93
25510;BME280;13413;52.336;21.200;2023-03-15T05:52:14;99643.29;;;5.79;64.95
25510;BME280;13413;52.336;21.200;2023-03-15T05:55:06;99647.23;;;5.82;64.76
25510;BME280;13413;52.336;21.200;2023-03-15T05:57:57;99659.83;;;5.79;64.60
25510;BME280;13413;52.336;21.200;2023-03-15T06:00:50;99670.71;;;5.77;64.19
25510;BME280;13413;52.336;21.200;2023-03-15T06:03:41;99676.83;;;5.71;64.04
25510;BME280;13413;52.336;21.200;2023-03-15T06:06:33;99690.17;;;5.74;64.12
25510;BME280;13413;52.336;21.200;2023-03-15T06:09:25;99696.34;;;5.74;63.77
25510;BME280;13413;52.336;21.200;2023-03-15T06:12:17;99701.36;;;5.73;63.77
25510;BME280;13413;52.336;21.200;2023-03-15T06:15:10;99704.91;;;5.71;63.91
25510;BME280;13413;52.336;21.200;2023-03-15T06:18:02;99712.08;;;5.64;63.78
25510;BME280;13413;52.336;21.200;2023-03-15T06:20:54;99721.36;;;5.66;64.07
25510;BME280;13413;52.336;21.200;2023-03-15T06:23:46;99718.36;;;5.71;64.19
25510;BME280;13413;52.336;21.200;2023-03-15T06:26:39;99719.13;;;5.74;63.93
25510;BME280;13413;52.336;21.200;2023-03-15T06:29:31;99727.69;;;5.79;63.91
25510;BME280;13413;52.336;21.200;2023-03-15T06:32:24;99735.55;;;5.79;63.95
25510;BME280;13413;52.336;21.200;2023-03-15T06:35:16;99742.10;;;5.81;63.79
25510;BME280;13413;52.336;21.200;2023-03-15T06:38:08;99746.95;;;5.76;63.53
25510;BME280;13413;52.336;21.200;2023-03-15T06:41:01;99757.63;;;5.72;63.65
25510;BME280;13413;52.336;21.200;2023-03-15T06:43:53;99772.65;;;5.69;63.42
25510;BME280;13413;52.336;21.200;2023-03-15T06:46:46;99777.69;;;5.71;63.31
25510;BME280;13413;52.336;21.200;2023-03-15T06:49:38;99776.71;;;5.69;63.22
25510;BME280;13413;52.336;21.200;2023-03-15T06:52:31;99783.50;;;5.62;62.93
25510;BME280;13413;52.336;21.200;2023-03-15T06:55:23;99793.23;;;5.63;63.06
25510;BME280;13413;52.336;21.200;2023-03-15T06:58:15;99797.86;;;5.68;62.98
25510;BME280;13413;52.336;21.200;2023-03-15T07:01:10;99804.20;;;5.72;63.08
25510;BME280;13413;52.336;21.200;2023-03-15T07:04:02;99810.73;;;5.69;62.43
25510;BME280;13413;52.336;21.200;2023-03-15T07:06:54;99816.98;;;5.69;62.35
25510;BME280;13413;52.336;21.200;2023-03-15T07:09:47;99812.56;;;5.73;62.50
25510;BME280;13413;52.336;21.200;2023-03-15T07:12:39;99818.20;;;5.79;62.12
25510;BME280;13413;52.336;21.200;2023-03-15T07:15:31;99819.72;;;5.83;62.13
25510;BME280;13413;52.336;21.200;2023-03-15T07:18:22;99823.19;;;5.96;62.33
25510;BME280;13413;52.336;21.200;2023-03-15T07:21:15;99826.30;;;6.03;62.33
25510;BME280;13413;52.336;21.200;2023-03-15T07:29:56;99820.51;;;6.03;61.71
25510;BME280;13413;52.336;21.200;2023-03-15T07:32:48;99820.75;;;5.97;61.34
25510;BME280;13413;52.336;21.200;2023-03-15T07:35:41;99825.66;;;6.02;61.54
25510;BME280;13413;52.336;21.200;2023-03-15T07:38:34;99827.48;;;6.09;61.15
25510;BME280;13413;52.336;21.200;2023-03-15T07:41:26;99831.05;;;6.13;61.21
25510;BME280;13413;52.336;21.200;2023-03-15T07:44:18;99833.96;;;6.12;60.86
25510;BME280;13413;52.336;21.200;2023-03-15T07:47:10;99838.70;;;6.05;60.91
25510;BME280;13413;52.336;21.200;2023-03-15T07:50:02;99844.83;;;6.05;61.34
25510;BME280;13413;52.336;21.200;2023-03-15T07:52:55;99849.09;;;6.03;60.97
25510;BME280;13413;52.336;21.200;2023-03-15T07:55:47;99854.57;;;6.03;60.97
25510;BME280;13413;52.336;21.200;2023-03-15T07:58:39;99856.21;;;5.95;60.84
25510;BME280;13413;52.336;21.200;2023-03-15T08:01:31;99865.11;;;5.99;60.70
25510;BME280;13413;52.336;21.200;2023-03-15T08:04:23;99872.54;;;5.97;60.69
25510;BME280;13413;52.336;21.200;2023-03-15T08:07:15;99876.20;;;6.00;60.59
25510;BME280;13413;52.336;21.200;2023-03-15T08:10:09;99878.52;;;6.04;60.43
25510;BME280;13413;52.336;21.200;2023-03-15T08:13:02;99882.94;;;6.20;60.52
25510;BME280;13413;52.336;21.200;2023-03-15T08:15:55;99894.45;;;6.33;60.01
25510;BME280;13413;52.336;21.200;2023-03-15T08:18:48;99899.42;;;6.29;59.03
25510;BME280;13413;52.336;21.200;2023-03-15T08:21:41;99905.95;;;6.20;59.01
25510;BME280;13413;52.336;21.200;2023-03-15T08:24:34;99914.54;;;6.23;58.59
25510;BME280;13413;52.336;21.200;2023-03-15T08:27:26;99915.89;;;6.23;58.44
25510;BME280;13413;52.336;21.200;2023-03-15T08:30:20;99926.55;;;6.26;58.67
25510;BME280;13413;52.336;21.200;2023-03-15T08:33:12;99927.67;;;6.29;58.56
25510;BME280;13413;52.336;21.200;2023-03-15T08:36:05;99932.55;;;6.33;58.36
25510;BME280;13413;52.336;21.200;2023-03-15T08:38:58;99941.02;;;6.46;58.30
25510;BME280;13413;52.336;21.200;2023-03-15T08:41:50;99940.46;;;6.51;57.43
25510;BME280;13413;52.336;21.200;2023-03-15T08:44:42;99958.01;;;6.49;57.82
25510;BME280;13413;52.336;21.200;2023-03-15T08:47:35;99967.02;;;6.54;57.82
25510;BME280;13413;52.336;21.200;2023-03-15T08:50:27;99970.38;;;6.45;57.72
25510;BME280;13413;52.336;21.200;2023-03-15T08:53:20;99968.08;;;6.46;58.11
25510;BME280;13413;52.336;21.200;2023-03-15T08:56:12;99971.00;;;6.51;57.60
25510;BME280;13413;52.336;21.200;2023-03-15T08:59:04;99976.47;;;6.60;57.50
25510;BME280;13413;52.336;21.200;2023-03-15T09:01:57;99985.94;;;6.78;57.56
25510;BME280;13413;52.336;21.200;2023-03-15T09:04:49;99996.16;;;6.98;57.23
25510;BME280;13413;52.336;21.200;2023-03-15T09:07:42;100000.55;;;7.16;56.72
25510;BME280;13413;52.336;21.200;2023-03-15T09:10:35;100001.96;;;7.21;56.96
25510;BME280;13413;52.336;21.200;2023-03-15T09:13:28;100002.70;;;7.19;55.80
25510;BME280;13413;52.336;21.200;2023-03-15T09:16:20;100005.35;;;7.11;55.23
25510;BME280;13413;52.336;21.200;2023-03-15T09:19:12;100004.92;;;7.18;55.44
25510;BME280;13413;52.336;21.200;2023-03-15T09:22:05;100010.85;;;7.15;54.77
25510;BME280;13413;52.336;21.200;2023-03-15T09:27:48;100015.46;;;7.18;54.19
25510;BME280;13413;52.336;21.200;2023-03-15T09:30:40;100017.20;;;7.20;54.55
25510;BME280;13413;52.336;21.200;2023-03-15T09:33:33;100014.64;;;7.35;54.97
25510;BME280;13413;52.336;21.200;2023-03-15T09:36:26;100014.97;;;7.54;54.38
25510;BME280;13413;52.336;21.200;2023-03-15T09:39:18;100015.19;;;7.72;54.19
25510;BME280;13413;52.336;21.200;2023-03-15T09:42:12;100021.11;;;7.81;53.43
25510;BME280;13413;52.336;21.200;2023-03-15T09:50:42;100016.05;;;7.97;52.89
25510;BME280;13413;52.336;21.200;2023-03-15T09:53:38;100022.54;;;8.18;53.25
25510;BME280;13413;52.336;21.200;2023-03-15T09:56:31;100022.86;;;8.29;52.49
25510;BME280;13413;52.336;21.200;2023-03-15T09:59:26;100017.16;;;8.51;52.28
25510;BME280;13413;52.336;21.200;2023-03-15T10:02:22;100027.08;;;8.51;51.17
25510;BME280;13413;52.336;21.200;2023-03-15T10:05:15;100024.39;;;8.44;51.48
25510;BME280;13413;52.336;21.200;2023-03-15T10:08:10;100022.86;;;8.50;51.94
25510;BME280;13413;52.336;21.200;2023-03-15T10:11:05;100025.17;;;8.50;51.04
25510;BME280;13413;52.336;21.200;2023-03-15T10:14:05;100035.73;;;8.40;50.79
25510;BME280;13413;52.336;21.200;2023-03-15T10:17:02;100036.16;;;8.40;51.83
25510;BME280;13413;52.336;21.200;2023-03-15T10:19:59;100032.16;;;8.41;51.12
25510;BME280;13413;52.336;21.200;2023-03-15T10:22:55;100024.52;;;8.19;50.42
25510;BME280;13413;52.336;21.200;2023-03-15T10:25:49;100019.67;;;8.06;51.01
25510;BME280;13413;52.336;21.200;2023-03-15T10:28:42;100018.82;;;8.18;51.33
25510;BME280;13413;52.336;21.200;2023-03-15T10:31:35;100017.36;;;8.43;51.70
25510;BME280;13413;52.336;21.200;2023-03-15T10:34:29;100021.53;;;8.60;51.00
25510;BME280;13413;52.336;21.200;2023-03-15T10:37:23;100019.89;;;8.65;50.83
25510;BME280;13413;52.336;21.200;2023-03-15T10:40:16;100025.21;;;8.74;50.16
25510;BME280;13413;52.336;21.200;2023-03-15T10:43:29;100018.52;;;8.87;49.96
25510;BME280;13413;52.336;21.200;2023-03-15T10:46:23;100017.67;;;8.72;48.49
25510;BME280;13413;52.336;21.200;2023-03-15T10:49:15;100015.58;;;8.86;48.89
25510;BME280;13413;52.336;21.200;2023-03-15T10:52:23;100012.67;;;9.01;48.87
25510;BME280;13413;52.336;21.200;2023-03-15T10:55:17;100023.13;;;9.00;48.48
25510;BME280;13413;52.336;21.200;2023-03-15T11:01:23;100029.34;;;9.14;48.08
25510;BME280;13413;52.336;21.200;2023-03-15T11:04:18;100032.68;;;9.31;48.43
25510;BME280;13413;52.336;21.200;2023-03-15T11:07:11;100037.11;;;9.49;48.31
25510;BME280;13413;52.336;21.200;2023-03-15T11:10:04;100032.22;;;9.68;47.93
25510;BME280;13413;52.336;21.200;2023-03-15T11:13:13;100027.65;;;9.73;47.69
25510;BME280;13413;52.336;21.200;2023-03-15T11:16:18;100029.34;;;9.89;47.46
25510;BME280;13413;52.336;21.200;2023-03-15T11:19:12;100034.58;;;9.88;47.31
25510;BME280;13413;52.336;21.200;2023-03-15T11:22:07;100035.08;;;9.95;47.00
25510;BME280;13413;52.336;21.200;2023-03-15T11:25:01;100030.44;;;9.99;47.45
25510;BME280;13413;52.336;21.200;2023-03-15T11:27:54;100026.75;;;10.00;46.85
25510;BME280;13413;52.336;21.200;2023-03-15T11:30:45;100033.83;;;9.80;45.86
25510;BME280;13413;52.336;21.200;2023-03-15T11:33:42;100035.35;;;9.54;46.73
25510;BME280;13413;52.336;21.200;2023-03-15T11:36:37;100035.15;;;9.66;47.78
25510;BME280;13413;52.336;21.200;2023-03-15T11:39:33;100035.14;;;9.75;46.83
25510;BME280;13413;52.336;21.200;2023-03-15T11:42:28;100036.14;;;9.75;46.90
25510;BME280;13413;52.336;21.200;2023-03-15T11:45:25;100042.46;;;9.67;46.43
25510;BME280;13413;52.336;21.200;2023-03-15T11:48:20;100044.52;;;9.61;46.01
25510;BME280;13413;52.336;21.200;2023-03-15T11:51:16;100043.92;;;9.62;45.96
25510;BME280;13413;52.336;21.200;2023-03-15T11:54:10;100044.95;;;9.53;46.04
25510;BME280;13413;52.336;21.200;2023-03-15T11:57:04;100042.92;;;9.67;46.40
25510;BME280;13413;52.336;21.200;2023-03-15T11:59:57;100047.59;;;9.71;45.63
25510;BME280;13413;52.336;21.200;2023-03-15T12:11:45;100060.96;;;9.52;45.23
25510;BME280;13413;52.336;21.200;2023-03-15T12:14:37;100073.33;;;9.40;45.83
25510;BME280;13413;52.336;21.200;2023-03-15T12:17:40;100073.31;;;9.58;45.89
25510;BME280;13413;52.336;21.200;2023-03-15T12:20:35;100077.30;;;9.56;45.54
25510;BME280;13413;52.336;21.200;2023-03-15T12:23:34;100074.12;;;9.45;45.58
25510;BME280;13413;52.336;21.200;2023-03-15T12:26:33;100080.20;;;9.41;45.60
25510;BME280;13413;52.336;21.200;2023-03-15T12:32:22;100080.27;;;9.20;45.85
25510;BME280;13413;52.336;21.200;2023-03-15T12:35:16;100083.23;;;9.38;45.27
25510;BME280;13413;52.336;21.200;2023-03-15T12:38:14;100086.92;;;9.21;44.87
25510;BME280;13413;52.336;21.200;2023-03-15T12:41:07;100090.56;;;8.98;45.28
25510;BME280;13413;52.336;21.200;2023-03-15T12:44:09;100092.75;;;8.98;45.91
25510;BME280;13413;52.336;21.200;2023-03-15T12:47:09;100095.52;;;9.01;45.58
25510;BME280;13413;52.336;21.200;2023-03-15T12:53:15;100113.78;;;8.78;45.44
25510;BME280;13413;52.336;21.200;2023-03-15T12:56:18;100116.48;;;8.68;45.68
25510;BME280;13413;52.336;21.200;2023-03-15T12:59:14;100121.95;;;8.67;46.10
25510;BME280;13413;52.336;21.200;2023-03-15T13:02:15;100118.84;;;8.76;46.73
25510;BME280;13413;52.336;21.200;2023-03-15T13:05:16;100119.21;;;8.77;46.48
25510;BME280;13413;52.336;21.200;2023-03-15T13:08:11;100126.89;;;8.84;46.76
25510;BME280;13413;52.336;21.200;2023-03-15T13:11:10;100129.11;;;8.83;46.74
25510;BME280;13413;52.336;21.200;2023-03-15T13:14:10;100126.81;;;8.77;46.17
25510;BME280;13413;52.336;21.200;2023-03-15T13:17:07;100126.99;;;8.74;46.11
25510;BME280;13413;52.336;21.200;2023-03-15T13:20:11;100133.02;;;8.80;46.59
25510;BME280;13413;52.336;21.200;2023-03-15T13:23:05;100137.99;;;8.76;46.44
25510;BME280;13413;52.336;21.200;2023-03-15T13:26:07;100142.91;;;8.76;46.61
25510;BME280;13413;52.336;21.200;2023-03-15T13:29:08;100141.22;;;8.65;46.44
25510;BME280;13413;52.336;21.200;2023-03-15T13:32:07;100144.12;;;8.66;46.69
25510;BME280;13413;52.336;21.200;2023-03-15T13:35:02;100140.11;;;8.67;47.15
25510;BME280;13413;52.336;21.200;2023-03-15T13:38:00;100139.54;;;8.72;47.07
25510;BME280;13413;52.336;21.200;2023-03-15T13:40:57;100147.28;;;8.69;47.02
25510;BME280;13413;52.336;21.200;2023-03-15T13:43:50;100145.89;;;8.62;47.20
25510;BME280;13413;52.336;21.200;2023-03-15T13:49:35;100156.11;;;8.62;46.73
25510;BME280;13413;52.336;21.200;2023-03-15T13:52:28;100156.98;;;8.47;46.81
25510;BME280;13413;52.336;21.200;2023-03-15T13:55:21;100158.48;;;8.43;47.23
25510;BME280;13413;52.336;21.200;2023-03-15T13:58:13;100162.66;;;8.35;47.33
25510;BME280;13413;52.336;21.200;2023-03-15T14:01:06;100165.36;;;8.29;47.61
25510;BME280;13413;52.336;21.200;2023-03-15T14:04:00;100168.73;;;8.30;47.86
25510;BME280;13413;52.336;21.200;2023-03-15T14:07:02;100173.06;;;8.33;48.01
25510;BME280;13413;52.336;21.200;2023-03-15T14:10:22;100183.23;;;8.30;48.12
25510;BME280;13413;52.336;21.200;2023-03-15T14:13:19;100180.10;;;8.33;48.21
25510;BME280;13413;52.336;21.200;2023-03-15T14:16:15;100177.35;;;8.29;48.30
25510;BME280;13413;52.336;21.200;2023-03-15T14:19:11;100181.59;;;8.27;48.51
25510;BME280;13413;52.336;21.200;2023-03-15T14:22:12;100177.75;;;8.17;48.48
25510;BME280;13413;52.336;21.200;2023-03-15T14:31:24;100185.24;;;8.20;48.58
25510;BME280;13413;52.336;21.200;2023-03-15T14:34:19;100185.91;;;8.12;48.50
25510;BME280;13413;52.336;21.200;2023-03-15T14:37:26;100191.98;;;8.16;48.34
25510;BME280;13413;52.336;21.200;2023-03-15T14:40:20;100190.52;;;8.15;48.57
25510;BME280;13413;52.336;21.200;2023-03-15T14:43:13;100191.89;;;8.22;48.51
25510;BME280;13413;52.336;21.200;2023-03-15T14:46:07;100194.73;;;8.20;48.47
25510;BME280;13413;52.336;21.200;2023-03-15T14:48:59;100196.81;;;8.17;48.68
25510;BME280;13413;52.336;21.200;2023-03-15T14:51:53;100199.02;;;8.16;48.70
25510;BME280;13413;52.336;21.200;2023-03-15T14:55:04;100195.45;;;8.15;48.48
25510;BME280;13413;52.336;21.200;2023-03-15T15:00:48;100205.23;;;8.14;48.60
25510;BME280;13413;52.336;21.200;2023-03-15T15:03:41;100207.64;;;8.14;48.21
25510;BME280;13413;52.336;21.200;2023-03-15T15:06:36;100211.46;;;8.12;48.10
25510;BME280;13413;52.336;21.200;2023-03-15T15:09:28;100211.98;;;8.09;48.35
25510;BME280;13413;52.336;21.200;2023-03-15T15:12:21;100216.15;;;8.08;48.36
25510;BME280;13413;52.336;21.200;2023-03-15T15:15:15;100215.21;;;8.03;48.44
25510;BME280;13413;52.336;21.200;2023-03-15T15:18:07;100214.15;;;8.05;48.49
25510;BME280;13413;52.336;21.200;2023-03-15T15:21:02;100216.84;;;7.96;48.54
25510;BME280;13413;52.336;21.200;2023-03-15T15:23:57;100219.02;;;7.94;48.82
25510;BME280;13413;52.336;21.200;2023-03-15T15:26:50;100223.65;;;7.92;48.69
25510;BME280;13413;52.336;21.200;2023-03-15T15:29:42;100221.95;;;7.91;48.79
25510;BME280;13413;52.336;21.200;2023-03-15T15:32:34;100224.65;;;7.87;48.91
25510;BME280;13413;52.336;21.200;2023-03-15T15:35:26;100234.56;;;7.90;48.93
25510;BME280;13413;52.336;21.200;2023-03-15T15:38:19;100235.11;;;7.85;48.87
25510;BME280;13413;52.336;21.200;2023-03-15T15:41:16;100237.63;;;7.78;48.91
25510;BME280;13413;52.336;21.200;2023-03-15T15:44:12;100244.70;;;7.77;49.42
25510;BME280;13413;52.336;21.200;2023-03-15T15:47:08;100252.89;;;7.81;49.32
25510;BME280;13413;52.336;21.200;2023-03-15T15:50:00;100264.34;;;7.78;49.27
25510;BME280;13413;52.336;21.200;2023-03-15T15:52:52;100265.02;;;7.72;49.38
25510;BME280;13413;52.336;21.200;2023-03-15T15:55:45;100269.44;;;7.68;49.46
25510;BME280;13413;52.336;21.200;2023-03-15T15:58:37;100272.94;;;7.63;49.52
25510;BME280;13413;52.336;21.200;2023-03-15T16:01:29;100276.06;;;7.59;49.51
25510;BME280;13413;52.336;21.200;2023-03-15T16:04:21;100280.13;;;7.54;49.61
25510;BME280;13413;52.336;21.200;2023-03-15T16:07:14;100283.99;;;7.48;49.61
25510;BME280;13413;52.336;21.200;2023-03-15T16:13:02;100290.90;;;7.42;49.85
25510;BME280;13413;52.336;21.200;2023-03-15T16:15:55;100291.66;;;7.44;49.90
25510;BME280;13413;52.336;21.200;2023-03-15T16:18:47;100298.85;;;7.42;50.00
25510;BME280;13413;52.336;21.200;2023-03-15T16:21:39;100299.02;;;7.41;50.13
25510;BME280;13413;52.336;21.200;2023-03-15T16:24:32;100300.22;;;7.36;50.19
25510;BME280;13413;52.336;21.200;2023-03-15T16:27:26;100301.98;;;7.34;50.40
25510;BME280;13413;52.336;21.200;2023-03-15T16:30:19;100305.94;;;7.33;50.40
25510;BME280;13413;52.336;21.200;2023-03-15T16:36:13;100307.95;;;7.26;50.65
25510;BME280;13413;52.336;21.200;2023-03-15T16:39:07;100311.14;;;7.20;50.91
25510;BME280;13413;52.336;21.200;2023-03-15T16:42:00;100317.02;;;7.16;51.08
25510;BME280;13413;52.336;21.200;2023-03-15T16:52:38;100322.34;;;7.04;51.43